Normed Antwerpen — V2DG9 — position and weather

sailwx.info

Track history (hours):
 
Tides and Currents Weather Stations Pressure Air Temp Water Temp Dewpoint Dewpoint Depression Visibility Wind Speed Wind Dir Waves Ship Positions

Normed Antwerpen

Last reported at 2016-May-27 05:32 UTC. Time now 2016-May-28 10:03 UTC.
Position N 48°51' W 005°49'.

Length 130 m; draft 6.2 m.

Type: Ship. MMSI: 305210993.

Date/timePositionNaut miles runAvg speedWind from/ knotsBaromVisibWave heightAir tempDewpointWater temp
2016-May-27 05:32N 48°51' W 005°49'11013.4
2016-May-26 21:21N 49°49' W 003°26'911.8
2016-May-26 20:33N 49°54' W 003°13'1212.5
2016-May-26 19:33N 50°00' W 002°57'1413.7
2016-May-26 18:33N 50°04' W 002°36'1515.1
2016-May-26 17:33N 50°10' W 002°15'3916.1
2016-May-26 15:08N 50°28' W 001°21'915.7
2016-May-26 14:33N 50°33' W 001°09'1111.1
2016-May-26 13:33N 50°43' W 001°01'1110.9
2016-May-26 12:33N 50°47' W 001°17'8 8.5
2016-May-26 11:34N 50°54' W 001°25'0 0.0
2016-May-25 13:14N 50°54' W 001°25'6 8.3
2016-May-25 12:33N 50°50' W 001°19'1010.3
2016-May-25 11:33N 50°45' W 001°05'1312.7
2016-May-25 10:33N 50°38' W 000°48'1211.9
2016-May-25 09:33N 50°36' W 000°29'1312.5
2016-May-25 08:33N 50°33' W 000°10'1313.1
2016-May-25 07:33N 50°35' E 000°11'1614.6
2016-May-25 06:29N 50°39' E 000°34'2814.4
2016-May-25 04:30N 50°56' E 001°11'1212.6
2016-May-25 03:33N 51°03' E 001°26'1111.1
2016-May-25 02:34N 51°10' E 001°39'1111.1
2016-May-25 01:33N 51°18' E 001°51'1010.4
2016-May-25 00:33N 51°24' E 002°06'1411.6
2016-May-24 23:23N 51°22' E 002°27'1112.7
2016-May-24 22:33N 51°22' E 002°44'1211.7
2016-May-24 21:31N 51°25' E 003°03'1313.5
2016-May-24 20:34N 51°25' E 003°24'1212.2
2016-May-24 19:34N 51°23' E 003°43'1211.8
2016-May-24 18:34N 51°24' E 004°02'1010.0
2016-May-24 17:32N 51°21' E 004°17'1 0.7
2016-May-24 16:33N 51°20' E 004°18'6 6.2
2016-May-24 15:33N 51°15' E 004°23'1 0.9
2016-May-24 14:29N 51°15' E 004°24'0 0.0
2016-May-24 13:31N 51°15' E 004°24'0 0.0
2016-May-24 12:31N 51°15' E 004°24'0 0.0
2016-May-24 11:34N 51°15' E 004°24'0 0.0
2016-May-24 10:33N 51°15' E 004°24'0 0.0
2016-May-24 09:33N 51°15' E 004°24'0 0.0
2016-May-24 08:32N 51°15' E 004°24'0 0.0
2016-May-24 07:33N 51°15' E 004°24'0 0.0
2016-May-24 06:31N 51°15' E 004°24'0 0.0
2016-May-24 05:31N 51°15' E 004°24'0 0.0
2016-May-24 04:34N 51°15' E 004°24'0 0.0
2016-May-24 03:33N 51°15' E 004°24'0 0.0
2016-May-24 02:33N 51°15' E 004°24'0 0.0
2016-May-24 01:33N 51°15' E 004°24'0 0.0
2016-May-24 00:32N 51°15' E 004°24'0 0.0
2016-May-23 23:31N 51°15' E 004°24'0 0.0
2016-May-23 22:31N 51°15' E 004°24'0 0.0
2016-May-23 21:34N 51°15' E 004°24'0 0.0
2016-May-23 20:33N 51°15' E 004°24'0 0.0
2016-May-23 19:33N 51°15' E 004°24'0 0.0
2016-May-23 18:32N 51°15' E 004°24'0 0.0
2016-May-23 17:32N 51°15' E 004°24'0 0.0
2016-May-23 16:31N 51°15' E 004°24'0 0.0
2016-May-23 15:31N 51°15' E 004°24'0 0.0
2016-May-23 14:33N 51°15' E 004°24'0 0.0
2016-May-23 13:33N 51°15' E 004°24'0 0.0
2016-May-23 12:33N 51°15' E 004°24'0 0.0
2016-May-23 11:34N 51°15' E 004°24'0 0.0
2016-May-23 10:33N 51°15' E 004°24'0 0.0
2016-May-23 09:32N 51°15' E 004°24'0 0.0
2016-May-23 08:32N 51°15' E 004°24'0 0.0
2016-May-23 07:31N 51°15' E 004°24'0 0.0
2016-May-23 06:31N 51°15' E 004°24'0 0.0
2016-May-23 05:31N 51°15' E 004°24'0 0.0
2016-May-23 04:33N 51°15' E 004°24'0 0.0
2016-May-23 03:33N 51°15' E 004°24'0 0.0
2016-May-23 02:32N 51°15' E 004°24'0 0.0
2016-May-23 01:32N 51°15' E 004°24'0 0.0
2016-May-23 00:31N 51°15' E 004°24'0 0.0
2016-May-22 23:31N 51°15' E 004°24'0 0.0
2016-May-22 22:30N 51°15' E 004°24'0 0.0
2016-May-22 21:33N 51°15' E 004°24'0 0.0
2016-May-22 20:33N 51°15' E 004°24'0 0.0
2016-May-22 19:29N 51°15' E 004°24'0 0.0
2016-May-22 18:32N 51°15' E 004°24'0 0.0
2016-May-22 17:31N 51°15' E 004°24'0 0.0
2016-May-22 16:31N 51°15' E 004°24'0 0.0
2016-May-22 15:34N 51°15' E 004°24'0 0.0
2016-May-22 14:33N 51°15' E 004°24'0 0.0
2016-May-22 13:33N 51°15' E 004°24'0 0.0
2016-May-22 12:32N 51°15' E 004°24'0 0.0
2016-May-22 11:32N 51°15' E 004°24'0 0.0
2016-May-22 10:31N 51°15' E 004°24'0 0.0
2016-May-22 09:33N 51°15' E 004°24'0 0.0
2016-May-22 08:33N 51°15' E 004°24'0 0.0
2016-May-22 07:32N 51°15' E 004°24'0 0.0
2016-May-22 06:32N 51°15' E 004°24'0 0.0
2016-May-22 05:31N 51°15' E 004°24'0 0.0
2016-May-22 04:31N 51°15' E 004°24'0 0.0
2016-May-22 03:31N 51°15' E 004°24'0 0.0
2016-May-22 02:33N 51°15' E 004°24'0 0.0
2016-May-22 01:33N 51°15' E 004°24'0 0.0
2016-May-22 00:32N 51°15' E 004°24'0 0.0
2016-May-21 23:32N 51°15' E 004°24'0 0.0
2016-May-21 22:31N 51°15' E 004°24'0 0.0
2016-May-21 21:31N 51°15' E 004°24'0 0.0
2016-May-21 20:31N 51°15' E 004°24'0 0.0
2016-May-21 19:33N 51°15' E 004°24'0 0.0
2016-May-21 18:33N 51°15' E 004°24'0 0.0
2016-May-21 17:32N 51°15' E 004°24'0 0.0
2016-May-21 16:32N 51°15' E 004°24'0 0.0
2016-May-21 15:31N 51°15' E 004°24'0 0.0
2016-May-21 14:31N 51°15' E 004°24'0 0.0
2016-May-21 13:31N 51°15' E 004°24'0 0.0
2016-May-21 12:33N 51°15' E 004°24'0 0.0
2016-May-21 11:33N 51°15' E 004°24'0 0.0
2016-May-21 10:32N 51°15' E 004°24'0 0.0
2016-May-21 09:32N 51°15' E 004°24'0 0.0
2016-May-21 08:31N 51°15' E 004°24'0 0.0
2016-May-21 07:31N 51°15' E 004°24'0 0.0
2016-May-21 06:31N 51°15' E 004°24'0 0.0
2016-May-21 05:33N 51°15' E 004°24'0 0.0
2016-May-21 04:33N 51°15' E 004°24'0 0.0
2016-May-21 03:32N 51°15' E 004°24'0 0.0
2016-May-21 02:32N 51°15' E 004°24'0 0.0
2016-May-21 01:28N 51°15' E 004°24'0 0.0
2016-May-21 00:33N 51°15' E 004°24'0 0.0
2016-May-20 23:34N 51°15' E 004°24'0 0.0
2016-May-20 22:33N 51°15' E 004°24'0 0.0
2016-May-20 21:33N 51°15' E 004°24'0 0.0
2016-May-20 20:32N 51°15' E 004°24'0 0.0
2016-May-20 19:32N 51°15' E 004°24'0 0.0
2016-May-20 18:31N 51°15' E 004°24'0 0.0
2016-May-20 17:31N 51°15' E 004°24'0 0.0
2016-May-20 16:33N 51°15' E 004°24'0 0.0
2016-May-20 15:33N 51°15' E 004°24'0 0.0
2016-May-20 14:33N 51°15' E 004°24'0 0.0
2016-May-20 13:32N 51°15' E 004°24'0 0.0
2016-May-20 12:32N 51°15' E 004°24'0 0.0
2016-May-20 11:31N 51°15' E 004°24'0 0.0
2016-May-20 10:31N 51°15' E 004°24'0 0.0
2016-May-20 09:31N 51°15' E 004°24'0 0.0
2016-May-20 08:31N 51°15' E 004°24'0 0.0
2016-May-20 07:31N 51°15' E 004°24'0 0.0
2016-May-20 06:33N 51°15' E 004°24'0 0.0
2016-May-20 05:33N 51°15' E 004°24'0 0.0
2016-May-20 04:32N 51°15' E 004°24'0 0.0
2016-May-20 03:32N 51°15' E 004°24'0 0.0
2016-May-20 02:31N 51°15' E 004°24'0 0.0
2016-May-20 01:33N 51°15' E 004°24'0 0.0
2016-May-20 00:34N 51°15' E 004°24'0 0.0
2016-May-19 23:33N 51°15' E 004°24'0 0.0
2016-May-19 22:33N 51°15' E 004°24'0 0.0
2016-May-19 21:32N 51°15' E 004°24'0 0.0
2016-May-19 20:32N 51°15' E 004°24'0 0.0
2016-May-19 19:31N 51°15' E 004°24'0 0.0
2016-May-19 18:31N 51°15' E 004°24'0 0.0
2016-May-19 17:33N 51°15' E 004°24'0 0.0
2016-May-19 16:33N 51°15' E 004°24'0 0.0
2016-May-19 15:33N 51°15' E 004°24'0 0.0
2016-May-19 14:32N 51°15' E 004°24'0 0.0
2016-May-19 13:32N 51°15' E 004°24'0 0.0
2016-May-19 12:31N 51°15' E 004°24'0 0.0
2016-May-19 11:31N 51°15' E 004°24'0 0.0
2016-May-19 10:33N 51°15' E 004°24'0 0.0
2016-May-19 09:33N 51°15' E 004°24'0 0.0
2016-May-19 08:33N 51°15' E 004°24'0 0.0
2016-May-19 07:32N 51°15' E 004°24'0 0.0
2016-May-19 06:32N 51°15' E 004°24'0 0.0
2016-May-19 05:31N 51°15' E 004°24'0 0.0
2016-May-19 04:31N 51°15' E 004°24'0 0.0
2016-May-19 03:33N 51°15' E 004°24'0 0.0
2016-May-19 02:33N 51°15' E 004°24'0 0.0
2016-May-19 01:30N 51°15' E 004°24'0 0.0
2016-May-19 00:32N 51°15' E 004°24'0 0.0
2016-May-18 23:32N 51°15' E 004°24'0 0.0
2016-May-18 22:31N 51°15' E 004°24'0 0.0
2016-May-18 21:31N 51°15' E 004°24'0 0.0
2016-May-18 20:30N 51°15' E 004°24'0 0.0
2016-May-18 19:33N 51°15' E 004°24'0 0.5
2016-May-18 18:33N 51°15' E 004°24'3 2.4
2016-May-18 17:32N 51°17' E 004°21'0 0.0
2016-May-18 16:31N 51°17' E 004°21'0 0.0
2016-May-18 15:31N 51°17' E 004°21'0 0.0
2016-May-18 14:33N 51°17' E 004°21'0 0.0
2016-May-18 13:33N 51°17' E 004°21'0 0.0
2016-May-18 12:32N 51°17' E 004°21'0 0.0
2016-May-18 11:29N 51°17' E 004°21'0 0.0
2016-May-18 10:32N 51°17' E 004°21'0 0.0
2016-May-18 09:31N 51°17' E 004°21'0 0.0
2016-May-18 08:28N 51°17' E 004°21'0 0.0
2016-May-18 07:33N 51°17' E 004°21'0 0.0
2016-May-18 06:33N 51°17' E 004°21'0 0.0
2016-May-18 05:32N 51°17' E 004°21'0 0.0
2016-May-18 04:32N 51°17' E 004°21'0 0.0
2016-May-18 03:32N 51°17' E 004°21'0 0.0
2016-May-18 02:28N 51°17' E 004°21'0 0.0
2016-May-18 01:31N 51°17' E 004°21'0 0.0
2016-May-18 00:33N 51°17' E 004°21'0 0.0
2016-May-17 23:33N 51°17' E 004°21'0 0.0
2016-May-17 22:29N 51°17' E 004°21'0 0.0
2016-May-17 21:29N 51°17' E 004°21'0 0.0
2016-May-17 20:32N 51°17' E 004°21'0 0.0
2016-May-17 19:28N 51°17' E 004°21'0 0.0
2016-May-17 18:31N 51°17' E 004°21'0 0.0
2016-May-17 17:30N 51°17' E 004°21'0 0.0
2016-May-17 16:33N 51°17' E 004°21'0 0.0
2016-May-17 15:29N 51°17' E 004°21'0 0.0
2016-May-17 14:29N 51°17' E 004°21'0 0.0
2016-May-17 13:31N 51°17' E 004°21'0 0.0
2016-May-17 12:31N 51°17' E 004°21'0 0.0
2016-May-17 11:28N 51°17' E 004°21'0 0.0
2016-May-17 10:26N 51°17' E 004°21'0 0.0
2016-May-17 09:32N 51°17' E 004°21'0 0.0
2016-May-17 08:32N 51°17' E 004°21'0 0.0
2016-May-17 07:25N 51°17' E 004°21'0 0.0
2016-May-17 06:28N 51°17' E 004°21'  
Track history (hours):
 
Tides and Currents Weather Stations Pressure Air Temp Water Temp Dewpoint Dewpoint Depression Visibility Wind Speed Wind Dir Waves Ship Positions

Normed Antwerpen

Last reported at 2016-May-27 05:32 UTC. Time now 2016-May-28 10:03 UTC.
Position N 48°51' W 005°49'.

Length 130 m; draft 6.2 m.

Type: Ship. MMSI: 305210993.

Date/timePositionNaut miles runAvg speedWind from/ knotsBaromVisibWave heightAir tempDewpointWater temp
2016-May-27 05:32N 48°51' W 005°49'11013.4
2016-May-26 21:21N 49°49' W 003°26'911.8
2016-May-26 20:33N 49°54' W 003°13'1212.5
2016-May-26 19:33N 50°00' W 002°57'1413.7
2016-May-26 18:33N 50°04' W 002°36'1515.1
2016-May-26 17:33N 50°10' W 002°15'3916.1
2016-May-26 15:08N 50°28' W 001°21'915.7
2016-May-26 14:33N 50°33' W 001°09'1111.1
2016-May-26 13:33N 50°43' W 001°01'1110.9
2016-May-26 12:33N 50°47' W 001°17'8 8.5
2016-May-26 11:34N 50°54' W 001°25'0 0.0
2016-May-25 13:14N 50°54' W 001°25'6 8.3
2016-May-25 12:33N 50°50' W 001°19'1010.3
2016-May-25 11:33N 50°45' W 001°05'1312.7
2016-May-25 10:33N 50°38' W 000°48'1211.9
2016-May-25 09:33N 50°36' W 000°29'1312.5
2016-May-25 08:33N 50°33' W 000°10'1313.1
2016-May-25 07:33N 50°35' E 000°11'1614.6
2016-May-25 06:29N 50°39' E 000°34'2814.4
2016-May-25 04:30N 50°56' E 001°11'1212.6
2016-May-25 03:33N 51°03' E 001°26'1111.1
2016-May-25 02:34N 51°10' E 001°39'1111.1
2016-May-25 01:33N 51°18' E 001°51'1010.4
2016-May-25 00:33N 51°24' E 002°06'1411.6
2016-May-24 23:23N 51°22' E 002°27'1112.7
2016-May-24 22:33N 51°22' E 002°44'1211.7
2016-May-24 21:31N 51°25' E 003°03'1313.5
2016-May-24 20:34N 51°25' E 003°24'1212.2
2016-May-24 19:34N 51°23' E 003°43'1211.8
2016-May-24 18:34N 51°24' E 004°02'1010.0
2016-May-24 17:32N 51°21' E 004°17'1 0.7
2016-May-24 16:33N 51°20' E 004°18'6 6.2
2016-May-24 15:33N 51°15' E 004°23'1 0.9
2016-May-24 14:29N 51°15' E 004°24'0 0.0
2016-May-24 13:31N 51°15' E 004°24'0 0.0
2016-May-24 12:31N 51°15' E 004°24'0 0.0
2016-May-24 11:34N 51°15' E 004°24'0 0.0
2016-May-24 10:33N 51°15' E 004°24'0 0.0
2016-May-24 09:33N 51°15' E 004°24'0 0.0
2016-May-24 08:32N 51°15' E 004°24'0 0.0
2016-May-24 07:33N 51°15' E 004°24'0 0.0
2016-May-24 06:31N 51°15' E 004°24'0 0.0
2016-May-24 05:31N 51°15' E 004°24'0 0.0
2016-May-24 04:34N 51°15' E 004°24'0 0.0
2016-May-24 03:33N 51°15' E 004°24'0 0.0
2016-May-24 02:33N 51°15' E 004°24'0 0.0
2016-May-24 01:33N 51°15' E 004°24'0 0.0
2016-May-24 00:32N 51°15' E 004°24'0 0.0
2016-May-23 23:31N 51°15' E 004°24'0 0.0
2016-May-23 22:31N 51°15' E 004°24'0 0.0
2016-May-23 21:34N 51°15' E 004°24'0 0.0
2016-May-23 20:33N 51°15' E 004°24'0 0.0
2016-May-23 19:33N 51°15' E 004°24'0 0.0
2016-May-23 18:32N 51°15' E 004°24'0 0.0
2016-May-23 17:32N 51°15' E 004°24'0 0.0
2016-May-23 16:31N 51°15' E 004°24'0 0.0
2016-May-23 15:31N 51°15' E 004°24'0 0.0
2016-May-23 14:33N 51°15' E 004°24'0 0.0
2016-May-23 13:33N 51°15' E 004°24'0 0.0
2016-May-23 12:33N 51°15' E 004°24'0 0.0
2016-May-23 11:34N 51°15' E 004°24'0 0.0
2016-May-23 10:33N 51°15' E 004°24'0 0.0
2016-May-23 09:32N 51°15' E 004°24'0 0.0
2016-May-23 08:32N 51°15' E 004°24'0 0.0
2016-May-23 07:31N 51°15' E 004°24'0 0.0
2016-May-23 06:31N 51°15' E 004°24'0 0.0
2016-May-23 05:31N 51°15' E 004°24'0 0.0
2016-May-23 04:33N 51°15' E 004°24'0 0.0
2016-May-23 03:33N 51°15' E 004°24'0 0.0
2016-May-23 02:32N 51°15' E 004°24'0 0.0
2016-May-23 01:32N 51°15' E 004°24'0 0.0
2016-May-23 00:31N 51°15' E 004°24'0 0.0
2016-May-22 23:31N 51°15' E 004°24'0 0.0
2016-May-22 22:30N 51°15' E 004°24'0 0.0
2016-May-22 21:33N 51°15' E 004°24'0 0.0
2016-May-22 20:33N 51°15' E 004°24'0 0.0
2016-May-22 19:29N 51°15' E 004°24'0 0.0
2016-May-22 18:32N 51°15' E 004°24'0 0.0
2016-May-22 17:31N 51°15' E 004°24'0 0.0
2016-May-22 16:31N 51°15' E 004°24'0 0.0
2016-May-22 15:34N 51°15' E 004°24'0 0.0
2016-May-22 14:33N 51°15' E 004°24'0 0.0
2016-May-22 13:33N 51°15' E 004°24'0 0.0
2016-May-22 12:32N 51°15' E 004°24'0 0.0
2016-May-22 11:32N 51°15' E 004°24'0 0.0
2016-May-22 10:31N 51°15' E 004°24'0 0.0
2016-May-22 09:33N 51°15' E 004°24'0 0.0
2016-May-22 08:33N 51°15' E 004°24'0 0.0
2016-May-22 07:32N 51°15' E 004°24'0 0.0
2016-May-22 06:32N 51°15' E 004°24'0 0.0
2016-May-22 05:31N 51°15' E 004°24'0 0.0
2016-May-22 04:31N 51°15' E 004°24'0 0.0
2016-May-22 03:31N 51°15' E 004°24'0 0.0
2016-May-22 02:33N 51°15' E 004°24'0 0.0
2016-May-22 01:33N 51°15' E 004°24'0 0.0
2016-May-22 00:32N 51°15' E 004°24'0 0.0
2016-May-21 23:32N 51°15' E 004°24'0 0.0
2016-May-21 22:31N 51°15' E 004°24'0 0.0
2016-May-21 21:31N 51°15' E 004°24'0 0.0
2016-May-21 20:31N 51°15' E 004°24'0 0.0
2016-May-21 19:33N 51°15' E 004°24'0 0.0
2016-May-21 18:33N 51°15' E 004°24'0 0.0
2016-May-21 17:32N 51°15' E 004°24'0 0.0
2016-May-21 16:32N 51°15' E 004°24'0 0.0
2016-May-21 15:31N 51°15' E 004°24'0 0.0
2016-May-21 14:31N 51°15' E 004°24'0 0.0
2016-May-21 13:31N 51°15' E 004°24'0 0.0
2016-May-21 12:33N 51°15' E 004°24'0 0.0
2016-May-21 11:33N 51°15' E 004°24'0 0.0
2016-May-21 10:32N 51°15' E 004°24'0 0.0
2016-May-21 09:32N 51°15' E 004°24'0 0.0
2016-May-21 08:31N 51°15' E 004°24'0 0.0
2016-May-21 07:31N 51°15' E 004°24'0 0.0
2016-May-21 06:31N 51°15' E 004°24'0 0.0
2016-May-21 05:33N 51°15' E 004°24'0 0.0
2016-May-21 04:33N 51°15' E 004°24'0 0.0
2016-May-21 03:32N 51°15' E 004°24'0 0.0
2016-May-21 02:32N 51°15' E 004°24'0 0.0
2016-May-21 01:28N 51°15' E 004°24'0 0.0
2016-May-21 00:33N 51°15' E 004°24'0 0.0
2016-May-20 23:34N 51°15' E 004°24'0 0.0
2016-May-20 22:33N 51°15' E 004°24'0 0.0
2016-May-20 21:33N 51°15' E 004°24'0 0.0
2016-May-20 20:32N 51°15' E 004°24'0 0.0
2016-May-20 19:32N 51°15' E 004°24'0 0.0
2016-May-20 18:31N 51°15' E 004°24'0 0.0
2016-May-20 17:31N 51°15' E 004°24'0 0.0
2016-May-20 16:33N 51°15' E 004°24'0 0.0
2016-May-20 15:33N 51°15' E 004°24'0 0.0
2016-May-20 14:33N 51°15' E 004°24'0 0.0
2016-May-20 13:32N 51°15' E 004°24'0 0.0
2016-May-20 12:32N 51°15' E 004°24'0 0.0
2016-May-20 11:31N 51°15' E 004°24'0 0.0
2016-May-20 10:31N 51°15' E 004°24'0 0.0
2016-May-20 09:31N 51°15' E 004°24'0 0.0
2016-May-20 08:31N 51°15' E 004°24'0 0.0
2016-May-20 07:31N 51°15' E 004°24'0 0.0
2016-May-20 06:33N 51°15' E 004°24'0 0.0
2016-May-20 05:33N 51°15' E 004°24'0 0.0
2016-May-20 04:32N 51°15' E 004°24'0 0.0
2016-May-20 03:32N 51°15' E 004°24'0 0.0
2016-May-20 02:31N 51°15' E 004°24'0 0.0
2016-May-20 01:33N 51°15' E 004°24'0 0.0
2016-May-20 00:34N 51°15' E 004°24'0 0.0
2016-May-19 23:33N 51°15' E 004°24'0 0.0
2016-May-19 22:33N 51°15' E 004°24'0 0.0
2016-May-19 21:32N 51°15' E 004°24'0 0.0
2016-May-19 20:32N 51°15' E 004°24'0 0.0
2016-May-19 19:31N 51°15' E 004°24'0 0.0
2016-May-19 18:31N 51°15' E 004°24'0 0.0
2016-May-19 17:33N 51°15' E 004°24'0 0.0
2016-May-19 16:33N 51°15' E 004°24'0 0.0
2016-May-19 15:33N 51°15' E 004°24'0 0.0
2016-May-19 14:32N 51°15' E 004°24'0 0.0
2016-May-19 13:32N 51°15' E 004°24'0 0.0
2016-May-19 12:31N 51°15' E 004°24'0 0.0
2016-May-19 11:31N 51°15' E 004°24'0 0.0
2016-May-19 10:33N 51°15' E 004°24'0 0.0
2016-May-19 09:33N 51°15' E 004°24'0 0.0
2016-May-19 08:33N 51°15' E 004°24'0 0.0
2016-May-19 07:32N 51°15' E 004°24'0 0.0
2016-May-19 06:32N 51°15' E 004°24'0 0.0
2016-May-19 05:31N 51°15' E 004°24'0 0.0
2016-May-19 04:31N 51°15' E 004°24'0 0.0
2016-May-19 03:33N 51°15' E 004°24'0 0.0
2016-May-19 02:33N 51°15' E 004°24'0 0.0
2016-May-19 01:30N 51°15' E 004°24'0 0.0
2016-May-19 00:32N 51°15' E 004°24'0 0.0
2016-May-18 23:32N 51°15' E 004°24'0 0.0
2016-May-18 22:31N 51°15' E 004°24'0 0.0
2016-May-18 21:31N 51°15' E 004°24'0 0.0
2016-May-18 20:30N 51°15' E 004°24'0 0.0
2016-May-18 19:33N 51°15' E 004°24'0 0.5
2016-May-18 18:33N 51°15' E 004°24'3 2.4
2016-May-18 17:32N 51°17' E 004°21'0 0.0
2016-May-18 16:31N 51°17' E 004°21'0 0.0
2016-May-18 15:31N 51°17' E 004°21'0 0.0
2016-May-18 14:33N 51°17' E 004°21'0 0.0
2016-May-18 13:33N 51°17' E 004°21'0 0.0
2016-May-18 12:32N 51°17' E 004°21'0 0.0
2016-May-18 11:29N 51°17' E 004°21'0 0.0
2016-May-18 10:32N 51°17' E 004°21'0 0.0
2016-May-18 09:31N 51°17' E 004°21'0 0.0
2016-May-18 08:28N 51°17' E 004°21'0 0.0
2016-May-18 07:33N 51°17' E 004°21'0 0.0
2016-May-18 06:33N 51°17' E 004°21'0 0.0
2016-May-18 05:32N 51°17' E 004°21'0 0.0
2016-May-18 04:32N 51°17' E 004°21'0 0.0
2016-May-18 03:32N 51°17' E 004°21'0 0.0
2016-May-18 02:28N 51°17' E 004°21'0 0.0
2016-May-18 01:31N 51°17' E 004°21'0 0.0
2016-May-18 00:33N 51°17' E 004°21'0 0.0
2016-May-17 23:33N 51°17' E 004°21'0 0.0
2016-May-17 22:29N 51°17' E 004°21'0 0.0
2016-May-17 21:29N 51°17' E 004°21'0 0.0
2016-May-17 20:32N 51°17' E 004°21'0 0.0
2016-May-17 19:28N 51°17' E 004°21'0 0.0
2016-May-17 18:31N 51°17' E 004°21'0 0.0
2016-May-17 17:30N 51°17' E 004°21'0 0.0
2016-May-17 16:33N 51°17' E 004°21'0 0.0
2016-May-17 15:29N 51°17' E 004°21'0 0.0
2016-May-17 14:29N 51°17' E 004°21'0 0.0
2016-May-17 13:31N 51°17' E 004°21'0 0.0
2016-May-17 12:31N 51°17' E 004°21'0 0.0
2016-May-17 11:28N 51°17' E 004°21'0 0.0
2016-May-17 10:26N 51°17' E 004°21'0 0.0
2016-May-17 09:32N 51°17' E 004°21'0 0.0
2016-May-17 08:32N 51°17' E 004°21'0 0.0
2016-May-17 07:25N 51°17' E 004°21'0 0.0
2016-May-17 06:28N 51°17' E 004°21'  

Dump ship's entire track history